Time;durP1;ratioP1;P1;durP2;ratioP2;P2;SDS_P1;SDS_P2;PMS_P1;PMS_P2;Temp;Humidity;BMP_temperature;BMP_pressure;BME280_temperature;BME280_humidity;BME280_pressure;Samples;Min_cycle;Max_cycle;Signal;HPM_P1;HPM_P2
2024/02/18 00:02:06;;;;;;;9.50;8.37;;;;;;;9.20;61.48;97846.50;5045739;28;20179;-69
2024/02/18 00:04:32;;;;;;;10.10;8.40;;;;;;;9.31;61.34;97841.97;5046261;28;20444;-68
2024/02/18 00:06:58;;;;;;;10.77;8.10;;;;;;;9.26;61.08;97836.81;5045555;28;20185;-70
2024/02/18 00:09:23;;;;;;;13.27;8.37;;;;;;;9.21;61.38;97837.75;5045617;28;20202;-69
2024/02/18 00:11:48;;;;;;;12.63;9.43;;;;;;;9.26;61.89;97841.16;5045577;28;20175;-69
2024/02/18 00:14:14;;;;;;;15.17;10.57;;;;;;;9.17;61.58;97847.41;5045345;28;20182;-69
2024/02/18 00:16:39;;;;;;;15.30;11.90;;;;;;;9.35;61.45;97842.78;5046098;28;20181;-69
2024/02/18 00:19:05;;;;;;;20.40;11.87;;;;;;;9.19;61.88;97837.78;5045808;28;20216;-69
2024/02/18 00:21:30;;;;;;;14.77;10.77;;;;;;;9.18;61.54;97833.41;5045270;28;20693;-68
2024/02/18 00:23:58;;;;;;;16.53;11.47;;;;;;;9.12;61.56;97833.53;5045195;28;20245;-68
2024/02/18 00:26:25;;;;;;;10.90;8.80;;;;;;;9.07;61.74;97838.84;5045278;28;20233;-69
2024/02/18 00:28:50;;;;;;;15.17;10.03;;;;;;;9.13;61.37;97827.41;5046222;28;20960;-68
2024/02/18 00:31:15;;;;;;;10.53;9.10;;;;;;;8.95;62.93;97836.38;5046658;28;20413;-69
2024/02/18 00:33:41;;;;;;;18.13;11.23;;;;;;;8.94;63.10;97828.56;5057899;28;20241;-70
2024/02/18 00:36:07;;;;;;;12.03;9.50;;;;;;;8.98;62.37;97827.63;5060439;28;20189;-69
2024/02/18 00:38:32;;;;;;;13.60;8.83;;;;;;;9.00;62.77;97825.84;5062162;28;20322;-69
2024/02/18 00:40:58;;;;;;;18.50;11.00;;;;;;;8.98;62.06;97819.78;5049039;28;20303;-69
2024/02/18 00:43:23;;;;;;;14.90;10.50;;;;;;;8.98;62.01;97820.66;5045176;28;20195;-69
2024/02/18 00:45:49;;;;;;;11.77;8.90;;;;;;;8.84;62.93;97812.97;5042588;28;20638;-69
2024/02/18 00:48:14;;;;;;;9.13;8.17;;;;;;;8.89;62.64;97823.38;5025089;28;20201;-69
2024/02/18 00:50:40;;;;;;;12.10;8.87;;;;;;;8.99;62.65;97826.72;5024982;28;20587;-68
2024/02/18 00:53:05;;;;;;;19.20;9.10;;;;;;;8.91;62.25;97826.84;5024878;28;20160;-69
2024/02/18 00:55:31;;;;;;;9.83;8.40;;;;;;;8.73;62.70;97824.50;5025085;28;20171;-69
2024/02/18 00:57:56;;;;;;;10.00;8.93;;;;;;;8.60;62.91;97824.66;5025672;28;20195;-69
2024/02/18 01:00:22;;;;;;;11.83;9.13;;;;;;;8.52;63.39;97828.25;5029312;28;20600;-67
2024/02/18 01:02:48;;;;;;;14.17;10.00;;;;;;;8.47;63.13;97828.31;5029139;28;20207;-68
2024/02/18 01:05:13;;;;;;;11.43;9.27;;;;;;;8.35;63.90;97823.19;5029135;28;20184;-69
2024/02/18 01:07:38;;;;;;;11.80;9.97;;;;;;;8.38;63.08;97823.16;5028884;28;20167;-69
2024/02/18 01:10:04;;;;;;;12.83;9.50;;;;;;;8.45;63.46;97827.47;5029219;28;20587;-69
2024/02/18 01:12:30;;;;;;;11.63;8.90;;;;;;;8.44;63.25;97829.22;5034877;28;20172;-69
2024/02/18 01:14:55;;;;;;;13.67;9.50;;;;;;;8.56;62.44;97822.97;5029005;28;20186;-69
2024/02/18 01:17:20;;;;;;;13.70;9.80;;;;;;;8.56;63.23;97822.97;5029272;28;20278;-69
2024/02/18 01:19:46;;;;;;;15.77;9.93;;;;;;;8.27;64.22;97816.31;5029213;28;20199;-69
2024/02/18 01:22:11;;;;;;;15.43;10.50;;;;;;;8.22;64.09;97820.75;5030016;28;20186;-68
2024/02/18 01:24:38;;;;;;;14.40;10.50;;;;;;;8.35;63.66;97826.69;5029924;28;20179;-68
2024/02/18 01:27:03;;;;;;;14.67;10.47;;;;;;;8.22;64.35;97823.34;5030055;28;20592;-69
2024/02/18 01:29:29;;;;;;;12.60;9.37;;;;;;;8.16;64.61;97819.94;5029484;28;20422;-69
2024/02/18 01:31:54;;;;;;;14.63;10.40;;;;;;;8.30;63.52;97817.16;5029363;28;20172;-69
2024/02/18 01:34:20;;;;;;;14.33;10.67;;;;;;;8.18;64.40;97811.19;5030573;28;20163;-69
2024/02/18 01:36:45;;;;;;;14.17;9.70;;;;;;;8.26;63.62;97813.72;5049052;28;20186;-69
2024/02/18 01:39:11;;;;;;;14.63;9.20;;;;;;;8.19;64.01;97818.13;5049067;28;20197;-68
2024/02/18 01:41:36;;;;;;;12.70;10.37;;;;;;;8.11;64.54;97811.28;5048997;28;20170;-69
2024/02/18 01:44:01;;;;;;;12.23;9.27;;;;;;;8.09;63.83;97818.28;5049277;28;20272;-69
2024/02/18 01:46:28;;;;;;;13.97;11.43;;;;;;;8.16;64.57;97817.31;5049065;28;20557;-69
2024/02/18 01:48:54;;;;;;;12.00;10.43;;;;;;;8.22;63.59;97812.91;5048570;28;20753;-69
2024/02/18 01:51:22;;;;;;;14.57;10.30;;;;;;;8.19;64.10;97815.53;5049040;28;20949;-69
2024/02/18 01:53:49;;;;;;;10.20;9.20;;;;;;;8.09;63.48;97815.66;5049252;28;20952;-69
2024/02/18 01:56:18;;;;;;;15.50;9.87;;;;;;;8.20;63.16;97806.81;5047590;28;20447;-69
2024/02/18 01:58:43;;;;;;;11.80;8.97;;;;;;;7.94;64.46;97807.13;5048957;28;20429;-69
2024/02/18 02:01:09;;;;;;;12.70;9.43;;;;;;;7.97;63.86;97803.59;5048695;28;20420;-70
2024/02/18 02:03:37;;;;;;;13.43;9.03;;;;;;;7.94;64.12;97811.47;5049013;28;20336;-68
2024/02/18 02:06:04;;;;;;;11.33;9.40;;;;;;;7.90;64.35;97796.69;5051291;28;20254;-69
2024/02/18 02:08:30;;;;;;;12.80;9.83;;;;;;;7.84;63.92;97802.84;5049716;28;20592;-69
2024/02/18 02:10:56;;;;;;;11.90;9.00;;;;;;;7.83;64.04;97796.75;5049294;28;20417;-68
2024/02/18 02:13:22;;;;;;;11.70;9.77;;;;;;;7.81;64.41;97801.13;5048037;28;20432;-71
2024/02/18 02:15:47;;;;;;;13.27;9.57;;;;;;;7.85;63.67;97799.38;5048316;28;20171;-69
2024/02/18 02:18:13;;;;;;;12.50;8.93;;;;;;;7.94;64.01;97796.66;5047565;28;20793;-69
2024/02/18 02:20:38;;;;;;;10.97;8.97;;;;;;;7.94;63.09;97795.78;5047647;28;20718;-68
2024/02/18 02:23:05;;;;;;;21.47;9.80;;;;;;;7.96;63.74;97799.22;5046184;28;20211;-69
2024/02/18 02:25:31;;;;;;;13.10;8.83;;;;;;;8.02;62.66;97793.94;5047402;28;20175;-67
2024/02/18 02:28:03;;;;;;;15.97;9.00;;;;;;;8.00;62.59;97793.09;5047458;28;20459;-68
2024/02/18 02:30:29;;;;;;;13.00;9.30;;;;;;;7.96;63.32;97796.63;5047012;28;20179;-68
2024/02/18 02:32:55;;;;;;;13.53;9.27;;;;;;;8.05;62.23;97788.66;5045497;28;20409;-68
2024/02/18 02:35:20;;;;;;;11.70;9.10;;;;;;;7.96;63.41;97794.00;5046955;28;20417;-68
2024/02/18 02:37:46;;;;;;;15.10;9.60;;;;;;;7.78;63.72;97790.72;5046926;28;20175;-68
2024/02/18 02:40:13;;;;;;;13.43;9.50;;;;;;;8.00;62.86;97787.88;5046957;28;20171;-69
2024/02/18 02:42:38;;;;;;;11.90;10.60;;;;;;;7.87;63.22;97788.91;5046635;28;20229;-68
2024/02/18 02:45:04;;;;;;;13.20;10.30;;;;;;;7.77;62.91;97789.00;5047244;28;20409;-67
2024/02/18 02:47:29;;;;;;;15.77;10.10;;;;;;;7.74;63.85;97793.38;5047006;28;20173;-69
2024/02/18 02:49:55;;;;;;;13.33;9.50;;;;;;;7.74;63.09;97789.00;5046743;28;20797;-68
2024/02/18 02:52:20;;;;;;;26.67;11.37;;;;;;;7.83;63.76;97794.16;5046926;28;20261;-68
2024/02/18 02:54:46;;;;;;;12.57;10.50;;;;;;;7.70;63.18;97789.06;5047162;28;20170;-68
2024/02/18 02:57:11;;;;;;;11.20;9.30;;;;;;;7.69;63.27;97787.34;5046819;28;20186;-69
2024/02/18 02:59:36;;;;;;;14.90;10.27;;;;;;;7.76;63.09;97783.78;5046472;28;20194;-68
2024/02/18 03:02:02;;;;;;;17.73;10.73;;;;;;;7.81;63.29;97781.97;5046442;28;20167;-68
2024/02/18 03:04:27;;;;;;;13.60;10.93;;;;;;;7.83;63.18;97775.00;5046685;28;20257;-69
2024/02/18 03:06:52;;;;;;;11.67;8.80;;;;;;;7.90;62.73;97773.19;5046616;28;20224;-68
2024/02/18 03:09:18;;;;;;;14.93;9.30;;;;;;;7.76;62.99;97773.31;5046148;28;20187;-68
2024/02/18 03:11:44;;;;;;;11.73;9.60;;;;;;;7.84;62.41;97768.88;5046825;28;20174;-67
2024/02/18 03:14:09;;;;;;;18.07;11.67;;;;;;;7.72;63.63;97769.00;5046519;28;20207;-68
2024/02/18 03:16:34;;;;;;;13.53;9.80;;;;;;;7.75;63.44;97774.22;5046538;28;20182;-69
2024/02/18 03:19:00;;;;;;;14.07;10.37;;;;;;;7.66;63.36;97769.09;5046576;28;20780;-69
2024/02/18 03:21:26;;;;;;;14.53;10.53;;;;;;;7.68;62.93;97768.19;5045632;28;20182;-68
2024/02/18 03:23:53;;;;;;;13.77;10.23;;;;;;;7.74;62.68;97762.03;5046362;28;20990;-69
2024/02/18 03:26:19;;;;;;;14.17;10.87;;;;;;;7.76;63.13;97761.13;5046220;28;20202;-69
2024/02/18 03:28:44;;;;;;;12.47;10.40;;;;;;;7.60;63.53;97760.41;5046044;28;20858;-68
2024/02/18 03:31:19;;;;;;;16.30;10.50;;;;;;;7.58;63.51;97758.69;5046157;28;20430;-68
2024/02/18 03:33:45;;;;;;;14.70;10.93;;;;;;;7.58;63.13;97763.91;5046179;28;20198;-69
2024/02/18 03:36:10;;;;;;;14.80;9.73;;;;;;;7.66;63.30;97764.72;5046122;28;20469;-68
2024/02/18 03:38:35;;;;;;;16.33;11.10;;;;;;;7.55;63.38;97766.56;5046167;28;20441;-69
2024/02/18 03:41:05;;;;;;;13.50;9.87;;;;;;;7.54;63.93;97762.25;5045841;28;20171;-69
2024/02/18 03:43:31;;;;;;;10.97;9.87;;;;;;;7.44;64.16;97758.84;5045933;28;20258;-68
2024/02/18 03:45:56;;;;;;;16.87;10.70;;;;;;;7.51;63.37;97764.88;5045854;28;20504;-68
2024/02/18 03:48:21;;;;;;;13.10;9.80;;;;;;;7.36;64.01;97760.66;5045603;28;20186;-68
2024/02/18 03:50:47;;;;;;;11.83;8.87;;;;;;;7.18;64.77;97764.28;5046063;28;20201;-67
2024/02/18 03:53:12;;;;;;;12.10;9.30;;;;;;;7.13;64.74;97759.09;5045676;28;20171;-67
2024/02/18 03:55:37;;;;;;;17.23;10.80;;;;;;;7.19;64.33;97758.22;5045977;28;20178;-68
2024/02/18 03:58:03;;;;;;;15.37;9.90;;;;;;;7.33;63.90;97753.72;5053262;28;20186;-69
2024/02/18 04:00:29;;;;;;;13.97;9.67;;;;;;;7.06;65.15;97746.97;5045693;28;20232;-68
2024/02/18 04:02:54;;;;;;;13.33;10.37;;;;;;;7.05;64.68;97749.63;5045556;28;20221;-70
2024/02/18 04:05:19;;;;;;;12.17;10.50;;;;;;;7.16;64.77;97750.41;5045814;28;20174;-68
2024/02/18 04:07:45;;;;;;;14.90;9.93;;;;;;;7.12;64.41;97744.34;5045082;28;20170;-68
2024/02/18 04:10:11;;;;;;;16.53;11.27;;;;;;;7.06;65.29;97751.34;5045157;28;20167;-69
2024/02/18 04:12:36;;;;;;;16.20;10.67;;;;;;;7.07;64.75;97753.09;5045380;28;20684;-69
2024/02/18 04:15:02;;;;;;;17.90;10.33;;;;;;;7.11;64.52;97752.16;5045231;28;20416;-68
2024/02/18 04:17:27;;;;;;;15.03;10.60;;;;;;;6.78;65.84;97755.03;5045149;28;20248;-68
2024/02/18 04:19:53;;;;;;;13.73;10.80;;;;;;;6.77;66.12;97752.44;5045035;28;20433;-68
2024/02/18 04:22:18;;;;;;;12.53;9.60;;;;;;;6.91;65.57;97758.41;5044999;28;20663;-68
2024/02/18 04:24:44;;;;;;;14.17;10.53;;;;;;;6.98;65.12;97749.66;5045499;28;20179;-68
2024/02/18 04:27:10;;;;;;;11.50;9.57;;;;;;;7.06;64.75;97753.94;5045354;28;20182;-69
2024/02/18 04:29:39;;;;;;;12.80;9.60;;;;;;;7.06;65.12;97754.81;5045302;28;20198;-69
2024/02/18 04:32:05;;;;;;;17.73;10.57;;;;;;;7.10;64.51;97753.91;5045001;28;20758;-69
2024/02/18 04:34:30;;;;;;;15.40;10.70;;;;;;;7.20;64.22;97759.91;5045344;28;20413;-68
2024/02/18 04:36:56;;;;;;;13.60;10.37;;;;;;;7.15;64.74;97756.50;5045163;28;20424;-69
2024/02/18 04:39:21;;;;;;;13.97;11.03;;;;;;;7.17;64.23;97754.75;5045339;28;20191;-68
2024/02/18 04:41:47;;;;;;;16.97;11.17;;;;;;;7.03;64.23;97749.63;5044972;28;20206;-68
2024/02/18 04:44:12;;;;;;;14.60;9.67;;;;;;;7.11;64.28;97749.56;5045078;28;20202;-69
2024/02/18 04:46:37;;;;;;;14.17;10.20;;;;;;;6.98;64.40;97744.44;5045283;28;20175;-68
2024/02/18 04:49:03;;;;;;;12.57;9.13;;;;;;;6.96;64.80;97750.56;5044821;28;20202;-68
2024/02/18 04:51:29;;;;;;;13.93;9.30;;;;;;;6.99;64.14;97756.63;5044477;28;20249;-69
2024/02/18 04:53:55;;;;;;;13.63;10.37;;;;;;;6.92;64.87;97760.16;5045035;28;20513;-69
2024/02/18 04:56:20;;;;;;;13.90;10.13;;;;;;;6.86;64.84;97754.97;5045163;28;20177;-68
2024/02/18 04:58:46;;;;;;;11.43;8.77;;;;;;;6.94;64.21;97755.78;5045500;28;20210;-68
2024/02/18 05:01:11;;;;;;;12.73;9.10;;;;;;;6.87;64.41;97756.69;5044948;28;20171;-69
2024/02/18 05:03:37;;;;;;;11.43;9.83;;;;;;;6.86;64.08;97754.13;5044834;28;20209;-68
2024/02/18 05:06:03;;;;;;;16.63;11.30;;;;;;;6.76;64.44;97753.31;5044727;28;20838;-68
2024/02/18 05:08:28;;;;;;;16.00;11.03;;;;;;;6.71;64.94;97758.56;5045052;28;20201;-68
2024/02/18 05:10:54;;;;;;;14.80;10.97;;;;;;;6.82;64.31;97750.66;5044871;28;20193;-69
2024/02/18 05:13:21;;;;;;;13.27;9.87;;;;;;;6.86;64.23;97754.13;5044956;28;20196;-68
2024/02/18 05:15:51;;;;;;;14.33;10.57;;;;;;;6.77;64.39;97753.28;5045048;28;20417;-68
2024/02/18 05:18:17;;;;;;;13.73;9.90;;;;;;;6.73;64.40;97738.56;5044783;28;20491;-68
2024/02/18 05:20:42;;;;;;;15.53;10.53;;;;;;;6.74;64.56;97739.44;5045188;28;20903;-68
2024/02/18 05:23:07;;;;;;;13.20;10.23;;;;;;;6.78;63.94;97735.94;5044853;28;20210;-68
2024/02/18 05:25:33;;;;;;;18.63;11.17;;;;;;;6.65;64.91;97734.28;5044801;28;20665;-68
2024/02/18 05:27:59;;;;;;;15.47;11.73;;;;;;;6.73;64.80;97733.34;5044553;28;20186;-68
2024/02/18 05:30:25;;;;;;;14.30;11.07;;;;;;;6.51;65.78;97731.75;5044324;28;20795;-69
2024/02/18 05:32:50;;;;;;;19.67;11.87;;;;;;;6.27;66.31;97736.22;5044222;28;20486;-69
2024/02/18 05:35:16;;;;;;;18.03;11.57;;;;;;;6.66;65.42;97736.88;5044345;28;20316;-69
2024/02/18 05:37:41;;;;;;;17.73;10.80;;;;;;;6.77;65.21;97736.78;5044306;28;20247;-68
2024/02/18 05:40:07;;;;;;;16.30;10.70;;;;;;;6.74;65.04;97735.06;5044561;28;20167;-68
2024/02/18 05:42:33;;;;;;;16.70;12.73;;;;;;;6.60;65.79;97733.44;5044688;28;20246;-69
2024/02/18 05:44:58;;;;;;;15.60;11.60;;;;;;;5.69;67.72;97741.66;5046991;28;20425;-68
2024/02/18 05:47:23;;;;;;;23.93;12.00;;;;;;;6.06;67.07;97739.81;5047904;28;20205;-68
2024/02/18 05:49:49;;;;;;;13.97;10.93;;;;;;;5.94;66.65;97735.50;5047853;28;20312;-69
2024/02/18 05:52:14;;;;;;;17.90;11.60;;;;;;;6.32;65.65;97739.66;5048065;28;20282;-68
2024/02/18 05:54:39;;;;;;;14.67;10.93;;;;;;;6.31;65.61;97737.97;5048174;28;20261;-68
2024/02/18 05:57:06;;;;;;;16.83;10.70;;;;;;;6.10;65.66;97741.53;5048348;28;20174;-68
2024/02/18 05:59:32;;;;;;;15.23;11.17;;;;;;;6.03;66.02;97738.97;5047849;28;20229;-68
2024/02/18 06:01:57;;;;;;;19.73;11.57;;;;;;;5.99;66.54;97737.25;5048520;28;20508;-68
2024/02/18 06:04:23;;;;;;;15.13;12.10;;;;;;;6.05;66.03;97735.47;5048282;28;20202;-68
2024/02/18 06:06:48;;;;;;;15.53;10.27;;;;;;;6.22;65.17;97739.75;5048869;28;20171;-68
2024/02/18 06:09:13;;;;;;;16.70;11.00;;;;;;;6.06;66.20;97739.81;5048803;28;20214;-68
2024/02/18 06:11:39;;;;;;;17.07;10.67;;;;;;;6.09;65.80;97744.13;5047631;28;20232;-68
2024/02/18 06:14:04;;;;;;;15.33;10.37;;;;;;;6.20;65.68;97744.97;5047789;28;20171;-68
2024/02/18 06:16:30;;;;;;;14.80;10.33;;;;;;;5.98;65.97;97740.72;5054182;28;20662;-69
2024/02/18 06:18:55;;;;;;;12.93;10.23;;;;;;;5.71;66.83;97751.19;5061384;28;20194;-69
2024/02/18 06:21:22;;;;;;;13.40;9.63;;;;;;;5.84;66.26;97746.81;5062730;28;20812;-69
2024/02/18 06:23:48;;;;;;;10.90;9.20;;;;;;;5.88;66.20;97745.06;5058581;28;20221;-68
2024/02/18 06:26:14;;;;;;;19.13;10.33;;;;;;;5.94;65.73;97732.06;5050340;28;20459;-68
2024/02/18 06:28:40;;;;;;;12.37;10.07;;;;;;;5.78;65.83;97739.00;5048651;28;20434;-68
2024/02/18 06:31:05;;;;;;;14.47;11.23;;;;;;;6.01;65.67;97731.16;5048367;28;20410;-69
2024/02/18 06:33:31;;;;;;;15.77;9.40;;;;;;;6.40;64.22;97729.19;5048676;28;20737;-68
2024/02/18 06:35:57;;;;;;;11.73;9.93;;;;;;;6.45;64.16;97723.94;5048348;28;20527;-69
2024/02/18 06:38:22;;;;;;;17.93;9.90;;;;;;;6.61;63.29;97719.50;5048807;28;20248;-68
2024/02/18 06:40:47;;;;;;;11.03;8.43;;;;;;;7.23;61.41;97715.53;5048300;28;20175;-69
2024/02/18 06:43:13;;;;;;;18.70;9.77;;;;;;;7.72;59.51;97717.59;5048436;28;20209;-69
2024/02/18 06:45:38;;;;;;;13.50;10.30;;;;;;;8.33;58.14;97720.34;5047992;28;20193;-68
2024/02/18 06:48:04;;;;;;;14.57;9.50;;;;;;;8.54;57.13;97719.22;5047877;28;20187;-68
2024/02/18 06:50:29;;;;;;;12.60;9.63;;;;;;;8.62;56.80;97712.09;5047342;28;20261;-69
2024/02/18 06:52:55;;;;;;;13.20;10.63;;;;;;;9.00;55.54;97714.13;5047936;28;20409;-69
2024/02/18 06:55:20;;;;;;;13.60;9.97;;;;;;;9.32;53.93;97717.94;5047216;28;20170;-66
2024/02/18 06:57:46;;;;;;;14.03;9.80;;;;;;;9.53;53.40;97711.47;5047721;28;20187;-68
2024/02/18 07:00:12;;;;;;;15.13;9.87;;;;;;;9.78;52.81;97709.25;5048005;28;20179;-67
2024/02/18 07:02:38;;;;;;;12.17;9.83;;;;;;;10.09;51.62;97698.97;5048014;28;20248;-67
2024/02/18 07:05:06;;;;;;;26.93;10.80;;;;;;;10.66;50.46;97710.03;5047736;28;20197;-69
2024/02/18 07:07:32;;;;;;;13.17;11.00;;;;;;;11.04;48.75;97701.22;5048108;28;20661;-69
2024/02/18 07:09:58;;;;;;;16.03;11.10;;;;;;;11.38;48.09;97703.81;5047376;28;20433;-69
2024/02/18 07:12:23;;;;;;;17.70;10.47;;;;;;;12.05;46.92;97697.66;5047152;28;20433;-69
2024/02/18 07:14:48;;;;;;;14.13;11.30;;;;;;;12.44;45.83;97692.09;5047522;28;20171;-68
2024/02/18 07:17:19;;;;;;;16.30;11.23;;;;;;;12.86;44.54;97686.41;5046967;28;20297;-68
2024/02/18 07:19:46;;;;;;;13.30;10.53;;;;;;;12.65;45.12;97683.53;5046794;28;20309;-68
2024/02/18 07:22:13;;;;;;;12.77;10.00;;;;;;;12.83;45.03;97683.88;5047402;28;20441;-68
2024/02/18 07:24:39;;;;;;;12.20;10.13;;;;;;;13.33;43.18;97684.84;5047537;28;20571;-67
2024/02/18 07:27:04;;;;;;;12.70;10.87;;;;;;;13.55;42.98;97687.59;5047902;28;20610;-68
2024/02/18 07:29:30;;;;;;;14.83;10.03;;;;;;;12.55;45.57;97692.66;5047622;28;20195;-68
2024/02/18 07:31:55;;;;;;;13.13;10.73;;;;;;;13.29;44.03;97693.78;5046876;28;20205;-68
2024/02/18 07:34:21;;;;;;;10.20;9.10;;;;;;;14.02;42.15;97675.38;5046920;28;20187;-68
2024/02/18 07:36:46;;;;;;;12.07;10.83;;;;;;;12.90;45.39;97683.63;5047041;28;20258;-69
2024/02/18 07:39:12;;;;;;;14.87;10.50;;;;;;;13.58;42.82;97676.06;5046955;28;20886;-68
2024/02/18 07:41:37;;;;;;;11.83;10.60;;;;;;;13.91;42.89;97681.94;5046089;28;20642;-68
2024/02/18 07:44:03;;;;;;;13.67;12.03;;;;;;;15.07;40.41;97674.81;5046637;28;20268;-69
2024/02/18 07:46:29;;;;;;;15.70;11.30;;;;;;;16.02;38.57;97663.63;5046879;28;20252;-68
2024/02/18 07:48:54;;;;;;;12.17;10.87;;;;;;;16.04;37.55;97660.94;5046851;28;20195;-69
2024/02/18 07:51:19;;;;;;;12.63;11.33;;;;;;;17.07;35.88;97656.91;5046503;28;20642;-69
2024/02/18 07:53:45;;;;;;;16.97;12.00;;;;;;;17.51;35.02;97648.47;5046472;28;20177;-68
2024/02/18 07:56:11;;;;;;;12.50;11.20;;;;;;;18.03;34.16;97650.22;5046341;28;20198;-68
2024/02/18 07:58:37;;;;;;;12.53;11.30;;;;;;;17.67;34.39;97652.97;5046415;28;20518;-69
2024/02/18 08:01:02;;;;;;;12.67;11.17;;;;;;;17.63;34.62;97646.13;5046068;28;20582;-68
2024/02/18 08:03:28;;;;;;;13.00;11.70;;;;;;;18.69;33.17;97637.75;5046011;28;20211;-69
2024/02/18 08:05:53;;;;;;;15.80;12.10;;;;;;;17.46;34.87;97636.41;5046521;28;20171;-69
2024/02/18 08:08:18;;;;;;;13.93;11.47;;;;;;;17.75;35.33;97640.16;5045659;28;20276;-68
2024/02/18 08:10:44;;;;;;;13.63;12.10;;;;;;;17.99;34.50;97638.03;5046231;28;20511;-68
2024/02/18 08:13:09;;;;;;;14.67;12.00;;;;;;;18.71;33.04;97636.72;5045793;28;20661;-69
2024/02/18 08:15:35;;;;;;;15.30;12.57;;;;;;;18.20;33.91;97636.00;5046135;28;20190;-69
2024/02/18 08:18:01;;;;;;;14.40;12.73;;;;;;;19.10;32.19;97645.16;5044994;28;20194;-69
2024/02/18 08:20:26;;;;;;;16.57;12.90;;;;;;;18.30;33.79;97642.53;5045285;28;20413;-69
2024/02/18 08:22:51;;;;;;;17.27;12.80;;;;;;;17.60;35.28;97635.66;5045467;28;20668;-69
2024/02/18 08:25:17;;;;;;;15.13;12.50;;;;;;;18.01;34.67;97640.63;5045328;28;20174;-68
2024/02/18 08:27:42;;;;;;;14.60;12.97;;;;;;;18.57;33.67;97626.00;5045155;28;20248;-69
2024/02/18 08:30:09;;;;;;;13.80;12.33;;;;;;;18.15;34.24;97622.13;5045240;28;20180;-69
2024/02/18 08:32:37;;;;;;;15.10;13.53;;;;;;;18.22;34.22;97615.53;5045351;28;20178;-68
2024/02/18 08:35:03;;;;;;;15.40;13.33;;;;;;;18.71;33.23;97609.22;5045322;28;20413;-68
2024/02/18 08:37:28;;;;;;;17.13;12.60;;;;;;;18.90;32.94;97609.94;5045531;28;20413;-68
2024/02/18 08:39:54;;;;;;;18.40;15.33;;;;;;;19.43;32.10;97608.53;5031123;28;21271;-70
2024/02/18 08:42:19;;;;;;;18.73;14.47;;;;;;;18.89;33.32;97615.34;5024363;28;20266;-69
2024/02/18 08:44:45;;;;;;;15.20;13.60;;;;;;;18.77;33.64;97604.47;5024381;28;20209;-68
2024/02/18 08:47:11;;;;;;;16.73;13.20;;;;;;;18.60;34.29;97596.56;5023560;28;20175;-69
2024/02/18 08:49:36;;;;;;;15.43;13.77;;;;;;;18.40;34.72;97600.34;5024351;28;20197;-69
2024/02/18 08:52:04;;;;;;;19.60;14.93;;;;;;;18.61;34.35;97608.91;5023534;28;20437;-70
2024/02/18 08:54:29;;;;;;;23.07;16.40;;;;;;;18.29;35.28;97602.75;5024031;28;20192;-69
2024/02/18 08:56:55;;;;;;;20.00;18.00;;;;;;;17.87;36.62;97599.72;5023571;28;20417;-68
2024/02/18 08:59:22;;;;;;;20.13;16.77;;;;;;;17.93;37.09;97594.06;5024870;28;20586;-69
2024/02/18 09:01:57;;;;;;;18.57;16.67;;;;;;;17.90;37.15;97596.88;5025221;28;20167;-67
2024/02/18 09:04:26;;;;;;;18.30;16.40;;;;;;;18.12;36.50;97599.25;5024900;28;20453;-69
2024/02/18 09:06:51;;;;;;;17.13;15.43;;;;;;;18.31;36.36;97593.75;5024622;28;20506;-68
2024/02/18 09:09:18;;;;;;;18.77;16.83;;;;;;;18.26;36.55;97592.28;5024268;28;20426;-68
2024/02/18 09:11:43;;;;;;;19.67;17.67;;;;;;;18.54;36.03;97581.84;5023889;28;20171;-68
2024/02/18 09:14:10;;;;;;;19.70;15.93;;;;;;;18.31;36.54;97588.44;5023783;28;21002;-68
2024/02/18 09:16:35;;;;;;;20.60;17.70;;;;;;;17.91;37.44;97582.69;5024478;28;20228;-69
2024/02/18 09:19:01;;;;;;;17.33;15.43;;;;;;;18.04;37.33;97582.00;5024855;28;21215;-67
2024/02/18 09:21:26;;;;;;;18.13;15.43;;;;;;;18.33;36.90;97575.06;5029053;28;20175;-67
2024/02/18 09:23:52;;;;;;;19.87;17.77;;;;;;;17.29;39.06;97584.19;5029025;28;20309;-68
2024/02/18 09:26:17;;;;;;;21.17;16.60;;;;;;;17.32;39.48;97576.94;5028493;28;20262;-67
2024/02/18 09:28:42;;;;;;;20.10;16.60;;;;;;;17.12;40.16;97577.09;5034472;28;20245;-68
2024/02/18 09:31:08;;;;;;;20.67;17.53;;;;;;;16.61;41.21;97573.47;5028487;28;20176;-67
2024/02/18 09:33:34;;;;;;;24.73;20.30;;;;;;;16.41;42.07;97574.44;5029453;28;20171;-68
2024/02/18 09:36:00;;;;;;;26.23;23.40;;;;;;;16.79;41.17;97574.38;5028472;28;20202;-67
2024/02/18 09:38:25;;;;;;;30.43;22.07;;;;;;;17.10;40.62;97578.97;5028735;28;20453;-68
2024/02/18 09:40:51;;;;;;;34.40;25.17;;;;;;;17.67;40.45;97568.03;5028981;28;20171;-67
2024/02/18 09:43:17;;;;;;;38.10;28.77;;;;;;;17.87;39.87;97557.22;5027226;28;20710;-67
2024/02/18 09:45:46;;;;;;;35.67;30.80;;;;;;;17.78;39.89;97563.00;5028629;28;20704;-67
2024/02/18 09:48:15;;;;;;;34.90;27.47;;;;;;;17.88;39.97;97550.09;5027632;28;20461;-69
2024/02/18 09:50:41;;;;;;;30.17;24.37;;;;;;;18.03;40.04;97545.78;5028154;28;20915;-68
2024/02/18 09:53:08;;;;;;;27.63;23.97;;;;;;;18.25;39.32;97548.06;5027632;28;20417;-68
2024/02/18 09:55:36;;;;;;;25.50;22.30;;;;;;;18.13;39.95;97549.63;5027753;28;20528;-68
2024/02/18 09:58:02;;;;;;;24.03;21.53;;;;;;;18.25;39.55;97553.38;5028580;28;20418;-67
2024/02/18 10:00:28;;;;;;;23.97;20.63;;;;;;;18.02;40.07;97555.50;5027510;28;20500;-68
2024/02/18 10:02:54;;;;;;;20.73;18.47;;;;;;;17.97;40.57;97555.75;5028520;28;20538;-68
2024/02/18 10:05:19;;;;;;;27.17;20.73;;;;;;;18.26;40.08;97539.13;5028169;28;20175;-68
2024/02/18 10:07:45;;;;;;;46.20;21.90;;;;;;;18.24;40.37;97533.94;5027736;28;20414;-67
2024/02/18 10:10:11;;;;;;;27.47;21.07;;;;;;;18.04;40.34;97531.53;5028215;28;20199;-68
2024/02/18 10:12:36;;;;;;;22.87;19.67;;;;;;;18.21;40.25;97531.44;5028107;28;20191;-68
2024/02/18 10:15:04;;;;;;;26.33;20.30;;;;;;;18.18;40.33;97534.28;5028133;28;20279;-69
2024/02/18 10:17:30;;;;;;;23.00;20.27;;;;;;;17.71;41.09;97525.31;5028243;28;20286;-69
2024/02/18 10:19:56;;;;;;;24.40;18.23;;;;;;;17.98;41.05;97520.31;5027969;28;20426;-67
2024/02/18 10:22:25;;;;;;;22.90;18.50;;;;;;;17.92;40.96;97520.66;5035272;28;20415;-69
2024/02/18 10:24:52;;;;;;;20.50;18.40;;;;;;;17.96;41.04;97513.38;5038551;28;20458;-69
2024/02/18 10:27:18;;;;;;;19.90;17.43;;;;;;;17.32;42.27;97515.91;5039982;28;20910;-69
2024/02/18 10:29:48;;;;;;;19.47;17.17;;;;;;;17.47;42.10;97506.25;5041109;28;20458;-69
2024/02/18 10:32:17;;;;;;;21.97;19.77;;;;;;;15.77;45.14;97507.72;5037641;28;20414;-68
2024/02/18 10:34:44;;;;;;;21.77;17.37;;;;;;;16.79;44.10;97508.09;5038147;28;20448;-69
2024/02/18 10:37:28;;;;;;;19.67;17.57;;;;;;;17.38;43.50;97497.94;5037690;28;20841;-68
2024/02/18 10:39:59;;;;;;;27.07;20.40;;;;;;;17.30;43.53;97493.06;5032435;28;21312;-70
2024/02/18 10:42:28;;;;;;;43.03;18.87;;;;;;;17.65;42.68;97492.94;5029864;28;20460;-68
2024/02/18 10:44:56;;;;;;;25.37;17.63;;;;;;;17.81;42.23;97496.50;5028546;28;20517;-69
2024/02/18 10:47:24;;;;;;;20.27;17.10;;;;;;;17.93;42.05;97489.66;5012472;28;20430;-68
2024/02/18 10:50:03;;;;;;;27.90;17.90;;;;;;;17.92;41.99;97479.97;5007427;28;21153;-69
2024/02/18 10:52:44;;;;;;;24.30;18.10;;;;;;;16.94;43.51;97478.16;5007162;28;20465;-69
2024/02/18 10:55:21;;;;;;;25.53;19.13;;;;;;;16.39;45.36;97478.28;5008214;28;20415;-68
2024/02/18 10:58:03;;;;;;;22.13;18.67;;;;;;;15.99;46.48;97483.75;5007668;28;20422;-69
2024/02/18 11:00:31;;;;;;;24.30;19.10;;;;;;;15.91;46.90;97475.31;5008048;28;20414;-69
2024/02/18 11:03:07;;;;;;;19.80;16.13;;;;;;;15.84;46.16;97465.94;5008867;28;20474;-68
2024/02/18 11:05:35;;;;;;;23.80;17.17;;;;;;;16.05;46.74;97456.09;5008528;28;20411;-67
2024/02/18 11:08:02;;;;;;;21.43;15.77;;;;;;;16.78;44.56;97453.34;5008064;28;20419;-68
2024/02/18 11:10:29;;;;;;;22.10;14.67;;;;;;;16.86;43.60;97451.16;5007192;28;20442;-69
2024/02/18 11:12:56;;;;;;;17.97;16.17;;;;;;;16.60;43.99;97439.22;5007132;28;20411;-69
2024/02/18 11:15:21;;;;;;;20.57;15.53;;;;;;;16.23;45.35;97436.66;5006465;28;20411;-69
2024/02/18 11:17:47;;;;;;;35.80;16.30;;;;;;;16.40;45.10;97425.22;5006308;28;21146;-69
2024/02/18 11:20:14;;;;;;;37.80;17.97;;;;;;;16.07;45.25;97428.63;5007134;28;20553;-69